sensor_id;sensor_type;location;lat;lon;timestamp;temperature;humidity
484;DHT22;228;48.922;12.198;2023-07-13T04:02:03;20.10;95.20
484;DHT22;228;48.922;12.198;2023-07-13T04:04:33;20.10;95.20
484;DHT22;228;48.922;12.198;2023-07-13T04:06:59;20.00;95.60
484;DHT22;228;48.922;12.198;2023-07-13T04:09:25;20.10;95.60
484;DHT22;228;48.922;12.198;2023-07-13T04:11:51;20.20;94.80
484;DHT22;228;48.922;12.198;2023-07-13T04:14:17;20.30;95.00
484;DHT22;228;48.922;12.198;2023-07-13T04:16:43;20.40;94.30
484;DHT22;228;48.922;12.198;2023-07-13T04:19:09;20.20;94.80
484;DHT22;228;48.922;12.198;2023-07-13T04:21:36;20.20;94.60
484;DHT22;228;48.922;12.198;2023-07-13T04:24:03;20.30;94.30
484;DHT22;228;48.922;12.198;2023-07-13T04:26:30;20.30;94.50
484;DHT22;228;48.922;12.198;2023-07-13T04:28:57;20.50;94.20
484;DHT22;228;48.922;12.198;2023-07-13T04:31:23;20.30;94.00
484;DHT22;228;48.922;12.198;2023-07-13T04:33:49;20.10;94.80
484;DHT22;228;48.922;12.198;2023-07-13T04:36:16;20.30;94.70
484;DHT22;228;48.922;12.198;2023-07-13T04:38:42;20.30;94.60
484;DHT22;228;48.922;12.198;2023-07-13T04:41:08;20.50;94.10
484;DHT22;228;48.922;12.198;2023-07-13T04:43:35;20.40;94.20
484;DHT22;228;48.922;12.198;2023-07-13T04:46:06;20.60;93.60
484;DHT22;228;48.922;12.198;2023-07-13T04:48:32;20.60;93.50
484;DHT22;228;48.922;12.198;2023-07-13T04:50:59;20.70;93.20
484;DHT22;228;48.922;12.198;2023-07-13T04:53:26;20.70;92.70
484;DHT22;228;48.922;12.198;2023-07-13T04:55:52;20.70;93.00
484;DHT22;228;48.922;12.198;2023-07-13T04:58:18;20.50;93.50
484;DHT22;228;48.922;12.198;2023-07-13T05:00:44;20.60;92.90
484;DHT22;228;48.922;12.198;2023-07-13T05:03:10;20.90;92.40
484;DHT22;228;48.922;12.198;2023-07-13T05:05:36;21.30;91.70
484;DHT22;228;48.922;12.198;2023-07-13T05:08:02;21.40;90.80
484;DHT22;228;48.922;12.198;2023-07-13T05:10:28;21.40;90.90
484;DHT22;228;48.922;12.198;2023-07-13T05:12:54;21.60;90.40
484;DHT22;228;48.922;12.198;2023-07-13T05:15:23;21.60;90.00
484;DHT22;228;48.922;12.198;2023-07-13T05:17:51;21.50;90.20
484;DHT22;228;48.922;12.198;2023-07-13T05:20:18;21.60;89.30
484;DHT22;228;48.922;12.198;2023-07-13T05:22:44;21.20;90.30
484;DHT22;228;48.922;12.198;2023-07-13T05:25:12;21.70;89.70
484;DHT22;228;48.922;12.198;2023-07-13T05:27:39;21.70;89.00
484;DHT22;228;48.922;12.198;2023-07-13T05:30:05;21.90;89.00
484;DHT22;228;48.922;12.198;2023-07-13T05:32:32;21.80;87.70
484;DHT22;228;48.922;12.198;2023-07-13T05:34:58;21.90;87.50
484;DHT22;228;48.922;12.198;2023-07-13T05:37:24;21.80;85.10
484;DHT22;228;48.922;12.198;2023-07-13T05:39:50;21.80;85.60
484;DHT22;228;48.922;12.198;2023-07-13T05:42:17;22.00;85.30
484;DHT22;228;48.922;12.198;2023-07-13T05:44:42;22.10;83.70
484;DHT22;228;48.922;12.198;2023-07-13T05:47:08;22.30;83.10
484;DHT22;228;48.922;12.198;2023-07-13T05:49:34;22.30;81.20
484;DHT22;228;48.922;12.198;2023-07-13T05:52:00;22.00;80.10
484;DHT22;228;48.922;12.198;2023-07-13T05:54:27;21.80;81.40
484;DHT22;228;48.922;12.198;2023-07-13T05:56:52;22.20;76.40
484;DHT22;228;48.922;12.198;2023-07-13T05:59:18;21.90;76.10
484;DHT22;228;48.922;12.198;2023-07-13T06:01:44;22.20;76.40
484;DHT22;228;48.922;12.198;2023-07-13T06:04:10;22.60;76.90
484;DHT22;228;48.922;12.198;2023-07-13T06:06:36;22.40;74.00
484;DHT22;228;48.922;12.198;2023-07-13T06:09:02;22.30;74.80
484;DHT22;228;48.922;12.198;2023-07-13T06:11:28;22.80;74.20
484;DHT22;228;48.922;12.198;2023-07-13T06:13:56;22.90;72.20
484;DHT22;228;48.922;12.198;2023-07-13T06:16:22;22.40;73.50
484;DHT22;228;48.922;12.198;2023-07-13T06:18:48;22.60;73.30
484;DHT22;228;48.922;12.198;2023-07-13T06:21:20;22.70;72.10
484;DHT22;228;48.922;12.198;2023-07-13T06:23:48;22.60;70.70
484;DHT22;228;48.922;12.198;2023-07-13T06:26:15;22.60;70.80
484;DHT22;228;48.922;12.198;2023-07-13T06:28:41;22.40;69.50
484;DHT22;228;48.922;12.198;2023-07-13T06:31:08;22.50;71.20
484;DHT22;228;48.922;12.198;2023-07-13T06:33:35;22.20;71.80
484;DHT22;228;48.922;12.198;2023-07-13T06:36:02;22.20;72.30
484;DHT22;228;48.922;12.198;2023-07-13T06:38:29;22.30;71.40
484;DHT22;228;48.922;12.198;2023-07-13T06:40:55;22.00;71.80
484;DHT22;228;48.922;12.198;2023-07-13T06:43:20;21.90;73.30
484;DHT22;228;48.922;12.198;2023-07-13T06:45:48;21.90;73.60
484;DHT22;228;48.922;12.198;2023-07-13T06:48:19;21.80;73.10
484;DHT22;228;48.922;12.198;2023-07-13T06:50:49;21.90;72.70
484;DHT22;228;48.922;12.198;2023-07-13T06:53:17;21.90;72.10
484;DHT22;228;48.922;12.198;2023-07-13T06:55:44;22.10;70.60
484;DHT22;228;48.922;12.198;2023-07-13T06:58:11;22.10;71.10
484;DHT22;228;48.922;12.198;2023-07-13T07:00:37;21.80;69.70
484;DHT22;228;48.922;12.198;2023-07-13T07:03:05;21.90;69.60
484;DHT22;228;48.922;12.198;2023-07-13T07:05:31;21.90;68.30
484;DHT22;228;48.922;12.198;2023-07-13T07:07:58;22.10;68.10
484;DHT22;228;48.922;12.198;2023-07-13T07:10:24;22.40;69.20
484;DHT22;228;48.922;12.198;2023-07-13T07:12:50;22.60;66.30
484;DHT22;228;48.922;12.198;2023-07-13T07:15:17;22.90;67.50
484;DHT22;228;48.922;12.198;2023-07-13T07:17:43;22.90;63.80
484;DHT22;228;48.922;12.198;2023-07-13T07:20:10;23.30;63.30
484;DHT22;228;48.922;12.198;2023-07-13T07:22:36;23.20;61.90
484;DHT22;228;48.922;12.198;2023-07-13T07:25:02;23.10;60.60
484;DHT22;228;48.922;12.198;2023-07-13T07:27:28;23.30;60.50
484;DHT22;228;48.922;12.198;2023-07-13T07:29:55;23.20;61.30
484;DHT22;228;48.922;12.198;2023-07-13T07:32:23;23.40;62.50
484;DHT22;228;48.922;12.198;2023-07-13T07:34:49;23.50;59.90
484;DHT22;228;48.922;12.198;2023-07-13T07:37:16;23.50;60.80
484;DHT22;228;48.922;12.198;2023-07-13T07:39:43;23.60;60.70
484;DHT22;228;48.922;12.198;2023-07-13T07:42:10;23.90;60.70
484;DHT22;228;48.922;12.198;2023-07-13T07:44:36;24.00;59.30
484;DHT22;228;48.922;12.198;2023-07-13T07:47:02;24.40;58.10
484;DHT22;228;48.922;12.198;2023-07-13T07:49:29;24.50;55.70
484;DHT22;228;48.922;12.198;2023-07-13T07:51:55;24.70;55.60
484;DHT22;228;48.922;12.198;2023-07-13T07:54:20;24.70;55.80
484;DHT22;228;48.922;12.198;2023-07-13T07:56:46;24.50;55.00
484;DHT22;228;48.922;12.198;2023-07-13T07:59:12;24.40;55.90
484;DHT22;228;48.922;12.198;2023-07-13T08:01:38;24.40;54.90
484;DHT22;228;48.922;12.198;2023-07-13T08:04:04;24.60;55.40
484;DHT22;228;48.922;12.198;2023-07-13T08:06:32;24.70;55.50
484;DHT22;228;48.922;12.198;2023-07-13T08:09:00;24.40;53.70
484;DHT22;228;48.922;12.198;2023-07-13T08:11:28;24.10;54.30
484;DHT22;228;48.922;12.198;2023-07-13T08:13:55;24.20;55.30
484;DHT22;228;48.922;12.198;2023-07-13T08:16:22;24.40;54.80
484;DHT22;228;48.922;12.198;2023-07-13T08:18:49;24.40;54.70
484;DHT22;228;48.922;12.198;2023-07-13T08:21:15;24.40;53.90
484;DHT22;228;48.922;12.198;2023-07-13T08:23:41;24.60;53.60
484;DHT22;228;48.922;12.198;2023-07-13T08:26:07;24.60;54.20
484;DHT22;228;48.922;12.198;2023-07-13T08:28:34;24.80;53.10
484;DHT22;228;48.922;12.198;2023-07-13T08:31:04;24.80;53.00
484;DHT22;228;48.922;12.198;2023-07-13T08:33:30;24.80;52.70
484;DHT22;228;48.922;12.198;2023-07-13T08:35:57;24.90;52.90
484;DHT22;228;48.922;12.198;2023-07-13T08:38:23;24.80;53.80
484;DHT22;228;48.922;12.198;2023-07-13T08:40:55;24.70;53.30
484;DHT22;228;48.922;12.198;2023-07-13T08:43:35;24.60;53.70
484;DHT22;228;48.922;12.198;2023-07-13T08:46:36;25.00;53.40
484;DHT22;228;48.922;12.198;2023-07-13T08:49:11;25.70;51.70
484;DHT22;228;48.922;12.198;2023-07-13T08:56:54;25.10;49.40
484;DHT22;228;48.922;12.198;2023-07-13T08:59:26;25.10;49.90
484;DHT22;228;48.922;12.198;2023-07-13T09:05:13;25.30;48.80
484;DHT22;228;48.922;12.198;2023-07-13T09:10:48;25.10;49.70
484;DHT22;228;48.922;12.198;2023-07-13T09:16:20;25.40;46.90
484;DHT22;228;48.922;12.198;2023-07-13T09:18:49;25.10;46.90
484;DHT22;228;48.922;12.198;2023-07-13T09:21:23;25.30;47.30
484;DHT22;228;48.922;12.198;2023-07-13T09:23:58;25.80;46.00
484;DHT22;228;48.922;12.198;2023-07-13T09:26:29;26.20;44.50
484;DHT22;228;48.922;12.198;2023-07-13T09:29:13;26.50;42.90
484;DHT22;228;48.922;12.198;2023-07-13T09:31:49;26.40;43.30
484;DHT22;228;48.922;12.198;2023-07-13T09:34:17;26.80;44.20
484;DHT22;228;48.922;12.198;2023-07-13T09:36:43;27.20;42.40
484;DHT22;228;48.922;12.198;2023-07-13T09:46:57;26.80;41.90
484;DHT22;228;48.922;12.198;2023-07-13T09:49:27;26.40;42.30
484;DHT22;228;48.922;12.198;2023-07-13T09:52:03;26.10;43.50
484;DHT22;228;48.922;12.198;2023-07-13T09:54:32;26.10;43.30
484;DHT22;228;48.922;12.198;2023-07-13T09:56:59;26.40;43.80
484;DHT22;228;48.922;12.198;2023-07-13T09:59:34;25.80;42.30
484;DHT22;228;48.922;12.198;2023-07-13T10:02:00;26.00;43.30
484;DHT22;228;48.922;12.198;2023-07-13T10:04:34;26.40;42.80
484;DHT22;228;48.922;12.198;2023-07-13T10:07:08;26.50;42.60
484;DHT22;228;48.922;12.198;2023-07-13T10:09:34;26.40;42.90
484;DHT22;228;48.922;12.198;2023-07-13T10:12:01;26.50;42.00
484;DHT22;228;48.922;12.198;2023-07-13T10:14:29;26.60;43.00
484;DHT22;228;48.922;12.198;2023-07-13T10:17:03;27.10;41.90
484;DHT22;228;48.922;12.198;2023-07-13T10:19:32;26.70;39.90
484;DHT22;228;48.922;12.198;2023-07-13T10:22:02;26.40;41.90
484;DHT22;228;48.922;12.198;2023-07-13T10:24:35;26.70;43.10
484;DHT22;228;48.922;12.198;2023-07-13T10:27:10;27.30;40.00
484;DHT22;228;48.922;12.198;2023-07-13T10:32:26;27.30;38.80
484;DHT22;228;48.922;12.198;2023-07-13T10:34:53;27.50;37.80
484;DHT22;228;48.922;12.198;2023-07-13T10:37:29;28.10;36.30
484;DHT22;228;48.922;12.198;2023-07-13T10:39:57;28.20;35.20
484;DHT22;228;48.922;12.198;2023-07-13T10:42:39;27.80;35.50
484;DHT22;228;48.922;12.198;2023-07-13T10:45:22;28.00;34.50
484;DHT22;228;48.922;12.198;2023-07-13T10:47:52;28.80;34.20
484;DHT22;228;48.922;12.198;2023-07-13T10:50:25;29.50;33.60
484;DHT22;228;48.922;12.198;2023-07-13T10:52:54;29.20;33.30
484;DHT22;228;48.922;12.198;2023-07-13T10:55:37;28.80;34.90
484;DHT22;228;48.922;12.198;2023-07-13T10:58:18;29.00;34.60
484;DHT22;228;48.922;12.198;2023-07-13T11:03:54;28.90;34.30
484;DHT22;228;48.922;12.198;2023-07-13T11:06:40;28.50;33.70
484;DHT22;228;48.922;12.198;2023-07-13T11:09:38;28.30;35.00
484;DHT22;228;48.922;12.198;2023-07-13T11:20:21;27.30;36.10
484;DHT22;228;48.922;12.198;2023-07-13T11:23:28;27.60;36.00
484;DHT22;228;48.922;12.198;2023-07-13T11:25:53;27.30;36.90
484;DHT22;228;48.922;12.198;2023-07-13T11:28:23;27.50;36.10
484;DHT22;228;48.922;12.198;2023-07-13T11:31:01;27.40;35.80
484;DHT22;228;48.922;12.198;2023-07-13T11:36:13;27.90;34.30
484;DHT22;228;48.922;12.198;2023-07-13T11:38:45;27.70;35.90
484;DHT22;228;48.922;12.198;2023-07-13T11:41:27;28.30;34.20
484;DHT22;228;48.922;12.198;2023-07-13T11:44:18;29.20;32.10
484;DHT22;228;48.922;12.198;2023-07-13T11:46:48;29.80;31.30
484;DHT22;228;48.922;12.198;2023-07-13T11:49:25;31.30;29.50
484;DHT22;228;48.922;12.198;2023-07-13T11:51:56;31.60;28.90
484;DHT22;228;48.922;12.198;2023-07-13T11:54:27;32.40;28.20
484;DHT22;228;48.922;12.198;2023-07-13T11:56:57;32.10;26.90
484;DHT22;228;48.922;12.198;2023-07-13T11:59:26;32.30;27.00
484;DHT22;228;48.922;12.198;2023-07-13T12:01:54;32.30;26.10
484;DHT22;228;48.922;12.198;2023-07-13T12:04:32;33.90;26.40
484;DHT22;228;48.922;12.198;2023-07-13T12:07:11;34.10;26.00
484;DHT22;228;48.922;12.198;2023-07-13T12:09:39;34.60;24.20
484;DHT22;228;48.922;12.198;2023-07-13T12:12:17;35.10;24.80
484;DHT22;228;48.922;12.198;2023-07-13T12:14:43;34.00;24.40
484;DHT22;228;48.922;12.198;2023-07-13T12:17:21;34.00;24.30
484;DHT22;228;48.922;12.198;2023-07-13T12:19:48;35.00;24.50
484;DHT22;228;48.922;12.198;2023-07-13T12:22:16;34.50;23.40
484;DHT22;228;48.922;12.198;2023-07-13T12:24:43;35.70;24.00
484;DHT22;228;48.922;12.198;2023-07-13T12:27:22;37.20;22.30
484;DHT22;228;48.922;12.198;2023-07-13T12:30:21;36.60;22.80
484;DHT22;228;48.922;12.198;2023-07-13T12:33:06;37.20;21.70
484;DHT22;228;48.922;12.198;2023-07-13T12:35:47;39.40;20.70
484;DHT22;228;48.922;12.198;2023-07-13T12:38:16;38.20;20.80
484;DHT22;228;48.922;12.198;2023-07-13T12:40:42;36.60;22.90
484;DHT22;228;48.922;12.198;2023-07-13T12:43:14;36.70;22.20
484;DHT22;228;48.922;12.198;2023-07-13T12:48:22;36.60;22.20
484;DHT22;228;48.922;12.198;2023-07-13T12:50:49;36.70;21.90
484;DHT22;228;48.922;12.198;2023-07-13T12:53:21;36.90;22.20
484;DHT22;228;48.922;12.198;2023-07-13T12:55:57;37.70;22.40
484;DHT22;228;48.922;12.198;2023-07-13T12:58:45;38.10;21.00
484;DHT22;228;48.922;12.198;2023-07-13T13:01:14;38.20;21.20
484;DHT22;228;48.922;12.198;2023-07-13T13:03:49;37.10;21.40
484;DHT22;228;48.922;12.198;2023-07-13T13:08:46;35.70;23.10
484;DHT22;228;48.922;12.198;2023-07-13T13:11:15;37.30;21.50
484;DHT22;228;48.922;12.198;2023-07-13T13:13:42;36.80;20.70
484;DHT22;228;48.922;12.198;2023-07-13T13:18:40;34.80;22.70
484;DHT22;228;48.922;12.198;2023-07-13T13:21:06;34.60;23.20
484;DHT22;228;48.922;12.198;2023-07-13T13:23:32;33.40;24.30
484;DHT22;228;48.922;12.198;2023-07-13T13:25:58;32.00;24.80
484;DHT22;228;48.922;12.198;2023-07-13T13:28:24;32.80;25.20
484;DHT22;228;48.922;12.198;2023-07-13T13:30:51;34.80;22.90
484;DHT22;228;48.922;12.198;2023-07-13T13:33:19;34.70;22.40
484;DHT22;228;48.922;12.198;2023-07-13T13:35:45;34.80;23.00
484;DHT22;228;48.922;12.198;2023-07-13T13:38:17;34.10;22.60
484;DHT22;228;48.922;12.198;2023-07-13T13:40:45;34.80;23.20
484;DHT22;228;48.922;12.198;2023-07-13T13:43:15;37.30;21.30
484;DHT22;228;48.922;12.198;2023-07-13T13:45:45;38.50;19.60
484;DHT22;228;48.922;12.198;2023-07-13T13:48:20;39.10;19.30
484;DHT22;228;48.922;12.198;2023-07-13T13:50:53;38.60;19.00
484;DHT22;228;48.922;12.198;2023-07-13T13:53:19;38.50;19.20
484;DHT22;228;48.922;12.198;2023-07-13T13:55:45;39.00;19.40
484;DHT22;228;48.922;12.198;2023-07-13T13:58:12;39.00;18.50
484;DHT22;228;48.922;12.198;2023-07-13T14:00:38;37.40;19.80
484;DHT22;228;48.922;12.198;2023-07-13T14:03:04;36.70;20.20
484;DHT22;228;48.922;12.198;2023-07-13T14:05:32;35.40;21.90
484;DHT22;228;48.922;12.198;2023-07-13T14:07:58;32.40;23.40
484;DHT22;228;48.922;12.198;2023-07-13T14:10:25;31.10;24.60
484;DHT22;228;48.922;12.198;2023-07-13T14:12:54;30.80;24.30
484;DHT22;228;48.922;12.198;2023-07-13T14:15:25;29.90;25.90
484;DHT22;228;48.922;12.198;2023-07-13T14:17:52;29.90;25.80
484;DHT22;228;48.922;12.198;2023-07-13T14:20:20;29.90;26.10
484;DHT22;228;48.922;12.198;2023-07-13T14:22:48;30.20;26.40
484;DHT22;228;48.922;12.198;2023-07-13T14:25:16;30.20;25.80
484;DHT22;228;48.922;12.198;2023-07-13T14:27:44;31.00;25.60
484;DHT22;228;48.922;12.198;2023-07-13T14:30:21;31.10;25.40
484;DHT22;228;48.922;12.198;2023-07-13T14:32:48;31.40;24.50
484;DHT22;228;48.922;12.198;2023-07-13T14:35:16;31.50;24.50
484;DHT22;228;48.922;12.198;2023-07-13T14:37:43;31.60;24.80
484;DHT22;228;48.922;12.198;2023-07-13T14:40:16;31.90;23.70
484;DHT22;228;48.922;12.198;2023-07-13T14:42:42;32.10;23.00
484;DHT22;228;48.922;12.198;2023-07-13T14:45:17;34.50;21.90
484;DHT22;228;48.922;12.198;2023-07-13T14:47:44;35.30;21.40
484;DHT22;228;48.922;12.198;2023-07-13T14:50:19;35.80;20.60
484;DHT22;228;48.922;12.198;2023-07-13T14:52:46;36.70;19.80
484;DHT22;228;48.922;12.198;2023-07-13T14:55:16;37.20;18.30
484;DHT22;228;48.922;12.198;2023-07-13T14:57:42;37.10;18.90
484;DHT22;228;48.922;12.198;2023-07-13T15:00:17;36.00;18.90
484;DHT22;228;48.922;12.198;2023-07-13T15:02:47;36.60;18.90
484;DHT22;228;48.922;12.198;2023-07-13T15:05:18;37.40;19.40
484;DHT22;228;48.922;12.198;2023-07-13T15:07:45;37.00;18.90
484;DHT22;228;48.922;12.198;2023-07-13T15:10:22;35.90;20.00
484;DHT22;228;48.922;12.198;2023-07-13T15:12:51;35.90;19.40
484;DHT22;228;48.922;12.198;2023-07-13T15:15:17;37.20;19.00
484;DHT22;228;48.922;12.198;2023-07-13T15:17:45;37.60;18.60
484;DHT22;228;48.922;12.198;2023-07-13T15:20:27;36.80;18.20
484;DHT22;228;48.922;12.198;2023-07-13T15:22:54;35.20;19.60
484;DHT22;228;48.922;12.198;2023-07-13T15:25:25;33.40;20.50
484;DHT22;228;48.922;12.198;2023-07-13T15:27:53;32.20;22.20
484;DHT22;228;48.922;12.198;2023-07-13T15:30:19;31.40;22.50
484;DHT22;228;48.922;12.198;2023-07-13T15:32:46;32.40;21.80
484;DHT22;228;48.922;12.198;2023-07-13T15:35:18;34.30;21.40
484;DHT22;228;48.922;12.198;2023-07-13T15:37:44;34.40;20.10
484;DHT22;228;48.922;12.198;2023-07-13T15:40:11;35.00;20.10
484;DHT22;228;48.922;12.198;2023-07-13T15:42:42;35.40;20.00
484;DHT22;228;48.922;12.198;2023-07-13T15:45:16;35.90;19.40
484;DHT22;228;48.922;12.198;2023-07-13T15:47:44;35.40;19.30
484;DHT22;228;48.922;12.198;2023-07-13T15:50:22;35.30;20.20
484;DHT22;228;48.922;12.198;2023-07-13T15:52:51;33.40;21.60
484;DHT22;228;48.922;12.198;2023-07-13T15:55:18;32.70;22.90
484;DHT22;228;48.922;12.198;2023-07-13T15:57:49;34.10;21.30
484;DHT22;228;48.922;12.198;2023-07-13T16:00:23;34.50;21.50
484;DHT22;228;48.922;12.198;2023-07-13T16:02:50;35.80;20.60
484;DHT22;228;48.922;12.198;2023-07-13T16:05:18;35.10;20.90
484;DHT22;228;48.922;12.198;2023-07-13T16:07:46;34.00;21.50
484;DHT22;228;48.922;12.198;2023-07-13T16:10:19;33.60;21.70
484;DHT22;228;48.922;12.198;2023-07-13T16:12:46;34.00;21.30
484;DHT22;228;48.922;12.198;2023-07-13T16:15:15;33.40;21.20
484;DHT22;228;48.922;12.198;2023-07-13T16:17:42;31.70;22.50
484;DHT22;228;48.922;12.198;2023-07-13T16:20:09;30.50;24.70
484;DHT22;228;48.922;12.198;2023-07-13T16:22:40;31.40;23.60
484;DHT22;228;48.922;12.198;2023-07-13T16:25:19;31.60;23.20
484;DHT22;228;48.922;12.198;2023-07-13T16:27:46;30.50;23.90
484;DHT22;228;48.922;12.198;2023-07-13T16:30:23;29.30;24.70
484;DHT22;228;48.922;12.198;2023-07-13T16:32:54;29.10;25.30
484;DHT22;228;48.922;12.198;2023-07-13T16:35:24;28.20;26.20
484;DHT22;228;48.922;12.198;2023-07-13T16:37:52;27.70;26.80
484;DHT22;228;48.922;12.198;2023-07-13T16:40:37;27.90;27.80
484;DHT22;228;48.922;12.198;2023-07-13T16:43:03;29.30;26.30
484;DHT22;228;48.922;12.198;2023-07-13T16:45:31;31.60;24.30
484;DHT22;228;48.922;12.198;2023-07-13T16:48:02;32.70;22.60
484;DHT22;228;48.922;12.198;2023-07-13T16:50:33;32.60;22.00
484;DHT22;228;48.922;12.198;2023-07-13T16:52:59;31.70;22.80
484;DHT22;228;48.922;12.198;2023-07-13T16:55:28;30.90;22.70
484;DHT22;228;48.922;12.198;2023-07-13T16:57:58;31.00;23.70
484;DHT22;228;48.922;12.198;2023-07-13T17:00:26;30.50;24.00
484;DHT22;228;48.922;12.198;2023-07-13T17:02:55;30.00;25.00
484;DHT22;228;48.922;12.198;2023-07-13T17:05:31;29.50;25.10
484;DHT22;228;48.922;12.198;2023-07-13T17:07:59;28.70;26.40
484;DHT22;228;48.922;12.198;2023-07-13T17:10:28;27.80;27.10
484;DHT22;228;48.922;12.198;2023-07-13T17:12:56;27.40;27.50
484;DHT22;228;48.922;12.198;2023-07-13T17:15:23;27.50;27.80
484;DHT22;228;48.922;12.198;2023-07-13T17:17:53;27.90;27.50
484;DHT22;228;48.922;12.198;2023-07-13T17:20:31;28.10;27.30
484;DHT22;228;48.922;12.198;2023-07-13T17:23:24;27.80;27.70
484;DHT22;228;48.922;12.198;2023-07-13T17:25:51;27.80;28.30
484;DHT22;228;48.922;12.198;2023-07-13T17:28:23;28.00;28.00
484;DHT22;228;48.922;12.198;2023-07-13T17:30:52;27.80;27.80
484;DHT22;228;48.922;12.198;2023-07-13T17:33:34;27.80;28.50
484;DHT22;228;48.922;12.198;2023-07-13T17:36:06;27.80;28.50
484;DHT22;228;48.922;12.198;2023-07-13T17:38:42;27.90;28.60
484;DHT22;228;48.922;12.198;2023-07-13T17:41:18;27.10;28.10
484;DHT22;228;48.922;12.198;2023-07-13T17:43:45;26.60;27.90
484;DHT22;228;48.922;12.198;2023-07-13T17:46:16;26.60;28.70
484;DHT22;228;48.922;12.198;2023-07-13T17:48:45;26.50;28.30
484;DHT22;228;48.922;12.198;2023-07-13T17:51:14;26.40;28.50
484;DHT22;228;48.922;12.198;2023-07-13T17:53:43;26.60;29.80
484;DHT22;228;48.922;12.198;2023-07-13T17:56:10;26.30;29.00
484;DHT22;228;48.922;12.198;2023-07-13T17:58:38;26.10;28.90
484;DHT22;228;48.922;12.198;2023-07-13T18:01:09;26.00;28.90
484;DHT22;228;48.922;12.198;2023-07-13T18:03:38;25.80;29.50
484;DHT22;228;48.922;12.198;2023-07-13T18:06:15;25.90;30.00
484;DHT22;228;48.922;12.198;2023-07-13T18:08:55;25.90;31.00
484;DHT22;228;48.922;12.198;2023-07-13T18:11:22;25.90;30.10
484;DHT22;228;48.922;12.198;2023-07-13T18:13:48;25.90;30.00
484;DHT22;228;48.922;12.198;2023-07-13T18:16:17;25.70;29.70
484;DHT22;228;48.922;12.198;2023-07-13T18:18:45;26.00;30.60
484;DHT22;228;48.922;12.198;2023-07-13T18:21:12;26.00;30.10
484;DHT22;228;48.922;12.198;2023-07-13T18:23:42;26.00;30.20
484;DHT22;228;48.922;12.198;2023-07-13T18:26:12;25.70;30.00
484;DHT22;228;48.922;12.198;2023-07-13T18:28:38;25.70;30.50
484;DHT22;228;48.922;12.198;2023-07-13T18:31:12;25.90;30.70
484;DHT22;228;48.922;12.198;2023-07-13T18:33:41;25.80;30.60
484;DHT22;228;48.922;12.198;2023-07-13T18:36:15;25.90;30.70
484;DHT22;228;48.922;12.198;2023-07-13T18:38:43;26.00;30.90
484;DHT22;228;48.922;12.198;2023-07-13T18:41:11;26.10;31.40
484;DHT22;228;48.922;12.198;2023-07-13T18:43:38;25.90;31.50
484;DHT22;228;48.922;12.198;2023-07-13T18:46:13;25.70;31.70
484;DHT22;228;48.922;12.198;2023-07-13T18:48:41;25.60;32.30
484;DHT22;228;48.922;12.198;2023-07-13T18:51:09;25.50;32.30
484;DHT22;228;48.922;12.198;2023-07-13T18:53:37;25.40;32.50
484;DHT22;228;48.922;12.198;2023-07-13T18:56:05;25.40;33.30
484;DHT22;228;48.922;12.198;2023-07-13T18:58:31;25.30;33.50
484;DHT22;228;48.922;12.198;2023-07-13T19:01:01;25.20;33.60
484;DHT22;228;48.922;12.198;2023-07-13T19:03:34;25.10;35.20
484;DHT22;228;48.922;12.198;2023-07-13T19:06:03;24.80;36.00
484;DHT22;228;48.922;12.198;2023-07-13T19:08:31;24.70;36.10
484;DHT22;228;48.922;12.198;2023-07-13T19:10:57;24.50;36.80
484;DHT22;228;48.922;12.198;2023-07-13T19:13:36;24.30;36.60
484;DHT22;228;48.922;12.198;2023-07-13T19:16:02;24.00;36.90
484;DHT22;228;48.922;12.198;2023-07-13T19:18:29;23.80;38.20
484;DHT22;228;48.922;12.198;2023-07-13T19:20:57;23.60;39.30
484;DHT22;228;48.922;12.198;2023-07-13T19:23:39;23.50;39.60
484;DHT22;228;48.922;12.198;2023-07-13T19:28:43;23.20;39.50
484;DHT22;228;48.922;12.198;2023-07-13T19:31:20;22.90;40.50
484;DHT22;228;48.922;12.198;2023-07-13T19:33:48;22.70;41.00
484;DHT22;228;48.922;12.198;2023-07-13T19:36:18;22.60;40.40
484;DHT22;228;48.922;12.198;2023-07-13T19:38:46;22.70;40.40
484;DHT22;228;48.922;12.198;2023-07-13T19:41:19;22.80;40.70
484;DHT22;228;48.922;12.198;2023-07-13T19:43:47;22.80;40.90
484;DHT22;228;48.922;12.198;2023-07-13T19:46:35;22.80;40.70
484;DHT22;228;48.922;12.198;2023-07-13T19:49:05;22.70;40.50
484;DHT22;228;48.922;12.198;2023-07-13T19:51:34;22.80;40.30
484;DHT22;228;48.922;12.198;2023-07-13T19:54:09;22.70;39.80
484;DHT22;228;48.922;12.198;2023-07-13T19:56:35;22.70;39.60
484;DHT22;228;48.922;12.198;2023-07-13T20:01:50;22.50;40.90
484;DHT22;228;48.922;12.198;2023-07-13T20:04:16;22.50;40.40
484;DHT22;228;48.922;12.198;2023-07-13T20:06:43;22.50;41.40
484;DHT22;228;48.922;12.198;2023-07-13T20:09:20;22.50;41.30
484;DHT22;228;48.922;12.198;2023-07-13T20:11:48;22.40;41.40
484;DHT22;228;48.922;12.198;2023-07-13T20:14:20;22.40;41.30
484;DHT22;228;48.922;12.198;2023-07-13T20:16:47;22.30;42.20
484;DHT22;228;48.922;12.198;2023-07-13T20:19:15;22.30;42.70
484;DHT22;228;48.922;12.198;2023-07-13T20:21:42;22.30;42.10
484;DHT22;228;48.922;12.198;2023-07-13T20:26:38;22.20;42.00
484;DHT22;228;48.922;12.198;2023-07-13T20:29:03;22.00;42.00
484;DHT22;228;48.922;12.198;2023-07-13T20:31:34;22.10;42.40
484;DHT22;228;48.922;12.198;2023-07-13T20:34:01;22.20;42.30
484;DHT22;228;48.922;12.198;2023-07-13T20:36:28;22.20;42.40
484;DHT22;228;48.922;12.198;2023-07-13T20:38:54;22.20;42.50
484;DHT22;228;48.922;12.198;2023-07-13T20:41:21;22.20;42.50
484;DHT22;228;48.922;12.198;2023-07-13T20:43:48;22.10;42.70
484;DHT22;228;48.922;12.198;2023-07-13T20:46:15;22.10;42.90
484;DHT22;228;48.922;12.198;2023-07-13T20:48:43;21.90;42.80
484;DHT22;228;48.922;12.198;2023-07-13T20:51:15;21.80;43.40
484;DHT22;228;48.922;12.198;2023-07-13T20:53:43;21.90;43.70
484;DHT22;228;48.922;12.198;2023-07-13T20:58:37;22.40;43.00
484;DHT22;228;48.922;12.198;2023-07-13T21:01:03;22.40;42.70
484;DHT22;228;48.922;12.198;2023-07-13T21:03:30;22.30;42.70
484;DHT22;228;48.922;12.198;2023-07-13T21:06:15;22.30;42.80
484;DHT22;228;48.922;12.198;2023-07-13T21:08:42;22.20;43.20
484;DHT22;228;48.922;12.198;2023-07-13T21:11:12;22.30;42.50
484;DHT22;228;48.922;12.198;2023-07-13T21:13:38;22.30;42.60
